createdAt,value
2022-09-14T00:01:24.743Z,22.18
2022-09-14T00:03:29.138Z,22.10
2022-09-14T00:05:32.268Z,22.03
2022-09-14T00:07:35.313Z,22.00
2022-09-14T00:09:38.436Z,21.94
2022-09-14T00:11:42.836Z,21.88
2022-09-14T00:13:47.165Z,21.85
2022-09-14T00:15:51.994Z,21.80
2022-09-14T00:17:54.977Z,21.76
2022-09-14T00:19:58.051Z,21.72
2022-09-14T00:22:01.497Z,21.71
2022-09-14T00:24:05.273Z,21.66
2022-09-14T00:26:10.422Z,21.66
2022-09-14T00:28:14.774Z,21.64
2022-09-14T00:30:17.915Z,21.62
2022-09-14T00:32:20.876Z,21.60
2022-09-14T00:34:23.868Z,21.59
2022-09-14T00:36:29.300Z,21.56
2022-09-14T00:38:32.257Z,21.56
2022-09-14T00:40:35.244Z,21.58
2022-09-14T00:42:38.803Z,21.56
2022-09-14T00:45:08.180Z,21.59
2022-09-14T00:47:13.797Z,21.57
2022-09-14T00:49:19.370Z,21.61
2022-09-14T00:51:23.262Z,21.62
2022-09-14T00:53:26.462Z,21.64
2022-09-14T00:55:29.605Z,21.66
2022-09-14T00:57:37.269Z,21.68
2022-09-14T00:59:42.231Z,21.64
2022-09-14T01:01:46.767Z,21.60
2022-09-14T01:03:49.859Z,21.59
2022-09-14T01:06:01.413Z,21.56
2022-09-14T01:08:32.517Z,21.53
2022-09-14T01:10:46.035Z,21.50
2022-09-14T01:13:05.997Z,21.49
2022-09-14T01:15:14.307Z,21.45
2022-09-14T01:17:23.020Z,21.45
2022-09-14T01:19:31.741Z,21.45
2022-09-14T01:21:37.085Z,21.44
2022-09-14T01:23:44.772Z,21.42
2022-09-14T01:26:05.702Z,21.41
2022-09-14T01:28:11.927Z,21.37
2022-09-14T01:30:19.106Z,21.36
2022-09-14T01:32:26.282Z,21.36
2022-09-14T01:34:32.374Z,21.36
2022-09-14T01:36:36.700Z,21.34
2022-09-14T01:38:42.008Z,21.32
2022-09-14T01:40:47.544Z,21.37
2022-09-14T01:42:52.838Z,21.43
2022-09-14T01:45:00.097Z,21.44
2022-09-14T01:47:07.582Z,21.45
2022-09-14T01:49:15.213Z,21.45
2022-09-14T01:51:22.404Z,21.24
2022-09-14T01:53:28.163Z,21.22
2022-09-14T01:55:35.243Z,21.27
2022-09-14T01:57:42.029Z,21.28
2022-09-14T01:59:46.296Z,21.27
2022-09-14T02:01:52.585Z,21.21
2022-09-14T02:03:59.028Z,21.09
2022-09-14T02:06:07.397Z,20.99
2022-09-14T02:08:10.422Z,20.96
2022-09-14T02:10:15.162Z,20.94
2022-09-14T02:12:18.425Z,20.94
2022-09-14T02:14:21.761Z,20.94
2022-09-14T02:16:25.919Z,20.92
2022-09-14T02:18:31.469Z,20.91
2022-09-14T02:20:40.859Z,20.91
2022-09-14T02:22:43.850Z,20.90
2022-09-14T02:24:47.474Z,20.88
2022-09-14T02:26:52.425Z,20.85
2022-09-14T02:28:56.062Z,20.82
2022-09-14T02:31:08.668Z,20.79
2022-09-14T02:33:17.186Z,20.71
2022-09-14T02:35:24.796Z,20.68
2022-09-14T02:37:32.690Z,20.64
2022-09-14T02:39:41.618Z,20.57
2022-09-14T02:41:50.025Z,20.56
2022-09-14T02:44:00.906Z,20.56
2022-09-14T02:46:08.681Z,20.54
2022-09-14T02:48:16.859Z,20.50
2022-09-14T02:50:24.943Z,20.49
2022-09-14T02:52:33.387Z,20.46
2022-09-14T02:54:40.616Z,20.46
2022-09-14T02:56:44.740Z,20.48
2022-09-14T02:58:47.955Z,20.48
2022-09-14T03:00:51.779Z,20.50
2022-09-14T03:02:54.912Z,20.51
2022-09-14T03:04:58.238Z,20.50
2022-09-14T03:07:02.686Z,20.48
2022-09-14T03:09:05.690Z,20.48
2022-09-14T03:11:08.785Z,20.49
2022-09-14T03:13:12.230Z,20.49
2022-09-14T03:15:15.262Z,20.49
2022-09-14T03:17:18.212Z,20.52
2022-09-14T03:19:21.782Z,20.51
2022-09-14T03:21:24.805Z,20.51
2022-09-14T03:23:29.150Z,20.50
2022-09-14T03:25:32.442Z,20.48
2022-09-14T03:27:35.419Z,20.50
2022-09-14T03:29:38.435Z,20.49
2022-09-14T03:31:41.436Z,20.48
2022-09-14T03:33:44.560Z,20.48
2022-09-14T03:35:47.529Z,20.46
2022-09-14T03:37:50.430Z,20.44
2022-09-14T03:39:54.827Z,20.44
2022-09-14T03:41:57.853Z,20.45
2022-09-14T03:44:00.866Z,20.44
2022-09-14T03:46:06.876Z,20.45
2022-09-14T03:48:11.400Z,20.44
2022-09-14T03:50:15.727Z,20.43
2022-09-14T03:52:18.903Z,20.43
2022-09-14T03:54:21.799Z,20.42
2022-09-14T03:56:26.305Z,20.42
2022-09-14T03:58:32.654Z,20.42
2022-09-14T04:00:36.204Z,20.42
2022-09-14T04:02:39.542Z,20.41
2022-09-14T04:04:42.850Z,20.39
2022-09-14T04:06:45.850Z,20.39
2022-09-14T04:08:48.935Z,20.37
2022-09-14T04:10:52.076Z,20.36
2022-09-14T04:12:56.523Z,20.35
2022-09-14T04:14:59.544Z,20.36
2022-09-14T04:17:02.810Z,20.35
2022-09-14T04:19:06.198Z,20.34
2022-09-14T04:21:11.692Z,20.33
2022-09-14T04:23:14.613Z,20.31
2022-09-14T04:25:17.572Z,20.29
2022-09-14T04:27:20.533Z,20.28
2022-09-14T04:29:24.872Z,20.25
2022-09-14T04:31:27.942Z,20.26
2022-09-14T04:33:32.623Z,20.26
2022-09-14T04:35:37.656Z,20.26
2022-09-14T04:37:40.705Z,20.26
2022-09-14T04:39:43.807Z,20.26
2022-09-14T04:41:47.153Z,20.25
2022-09-14T04:43:51.601Z,20.25
2022-09-14T04:46:03.731Z,20.24
2022-09-14T04:48:06.821Z,20.24
2022-09-14T04:50:11.382Z,20.24
2022-09-14T04:52:14.314Z,20.27
2022-09-14T04:54:18.597Z,20.26
2022-09-14T04:56:23.226Z,20.28
2022-09-14T04:58:26.200Z,20.28
2022-09-14T05:00:29.851Z,20.30
2022-09-14T05:02:34.228Z,20.31
2022-09-14T05:04:37.340Z,20.32
2022-09-14T05:06:42.157Z,20.34
2022-09-14T05:08:45.803Z,20.35
2022-09-14T05:10:48.840Z,20.35
2022-09-14T05:12:51.795Z,20.35
2022-09-14T05:14:55.308Z,20.33
2022-09-14T05:17:01.228Z,20.26
2022-09-14T05:19:07.326Z,20.16
2022-09-14T05:21:11.880Z,20.07
2022-09-14T05:23:14.807Z,20.00
2022-09-14T05:25:17.837Z,19.99
2022-09-14T05:27:20.808Z,20.00
2022-09-14T05:29:23.838Z,20.01
2022-09-14T05:31:27.642Z,20.01
2022-09-14T05:33:31.058Z,20.04
2022-09-14T05:35:35.426Z,20.06
2022-09-14T05:37:38.369Z,20.08
2022-09-14T05:39:41.390Z,20.11
2022-09-14T05:41:44.331Z,20.13
2022-09-14T05:43:47.472Z,20.15
2022-09-14T05:45:50.430Z,20.18
2022-09-14T05:47:53.390Z,20.20
2022-09-14T05:49:56.304Z,20.21
2022-09-14T05:52:00.933Z,20.23
2022-09-14T05:54:09.293Z,20.27
2022-09-14T05:56:14.001Z,20.29
2022-09-14T05:58:17.983Z,20.31
2022-09-14T06:00:21.684Z,20.33
2022-09-14T06:02:24.818Z,20.34
2022-09-14T06:04:28.033Z,20.34
2022-09-14T06:06:32.619Z,20.34
2022-09-14T06:08:37.530Z,20.35
2022-09-14T06:10:40.699Z,20.36
2022-09-14T06:12:43.686Z,20.38
2022-09-14T06:14:46.609Z,20.39
2022-09-14T06:16:49.700Z,20.41
2022-09-14T06:18:52.779Z,20.44
2022-09-14T06:20:55.736Z,20.47
2022-09-14T06:22:58.771Z,20.51
2022-09-14T06:25:03.138Z,20.56
2022-09-14T06:27:08.884Z,20.61
2022-09-14T06:29:11.974Z,20.63
2022-09-14T06:31:17.730Z,20.65
2022-09-14T06:33:21.174Z,20.69
2022-09-14T06:35:24.165Z,20.70
2022-09-14T06:37:27.187Z,20.74
2022-09-14T06:39:30.240Z,20.77
2022-09-14T06:41:34.632Z,20.80
2022-09-14T06:43:39.787Z,20.83
2022-09-14T06:45:43.178Z,20.87
2022-09-14T06:47:46.271Z,20.90
2022-09-14T06:49:50.306Z,20.94
2022-09-14T06:51:55.985Z,21.02
2022-09-14T06:54:00.608Z,21.10
2022-09-14T06:56:05.026Z,21.15
2022-09-14T06:58:09.792Z,21.20
2022-09-14T07:00:13.930Z,21.24
2022-09-14T07:02:17.134Z,21.29
2022-09-14T07:04:20.234Z,21.32
2022-09-14T07:06:24.762Z,21.33
2022-09-14T07:08:29.460Z,21.36
2022-09-14T07:10:32.443Z,21.37
2022-09-14T07:12:35.497Z,21.39
2022-09-14T07:14:39.905Z,21.39
2022-09-14T07:16:42.957Z,21.36
2022-09-14T07:18:46.016Z,21.36
2022-09-14T07:20:49.428Z,21.39
2022-09-14T07:22:52.424Z,21.43
2022-09-14T07:24:55.442Z,21.51
2022-09-14T07:26:58.480Z,21.64
2022-09-14T07:29:03.539Z,21.79
2022-09-14T07:31:16.834Z,21.92
2022-09-14T07:33:19.933Z,22.07
2022-09-14T07:35:23.188Z,22.19
2022-09-14T07:37:26.197Z,22.38
2022-09-14T07:39:29.224Z,22.38
2022-09-14T07:41:34.118Z,22.38
2022-09-14T07:43:37.234Z,22.38
2022-09-14T07:45:40.270Z,22.36
2022-09-14T07:47:44.697Z,22.46
2022-09-14T07:49:47.830Z,22.57
2022-09-14T07:51:50.923Z,22.63
2022-09-14T07:53:54.201Z,22.68
2022-09-14T07:56:01.567Z,22.65
2022-09-14T07:58:04.533Z,22.59
2022-09-14T08:00:09.852Z,22.54
2022-09-14T08:02:15.153Z,22.52
2022-09-14T08:04:19.827Z,22.54
2022-09-14T08:06:24.947Z,22.56
2022-09-14T08:08:29.749Z,22.58
2022-09-14T08:10:35.953Z,22.57
2022-09-14T08:12:38.976Z,22.53
2022-09-14T08:14:41.955Z,22.49
2022-09-14T08:16:45.074Z,22.46
2022-09-14T08:18:48.863Z,22.49
2022-09-14T08:20:53.309Z,22.58
2022-09-14T08:22:56.228Z,22.73
2022-09-14T08:24:59.610Z,22.82
2022-09-14T08:27:02.563Z,22.90
2022-09-14T08:29:06.666Z,22.92
2022-09-14T08:31:11.505Z,22.88
2022-09-14T08:33:14.561Z,22.91
2022-09-14T08:35:17.545Z,22.98
2022-09-14T08:37:22.241Z,23.02
2022-09-14T08:39:25.182Z,23.03
2022-09-14T08:41:30.443Z,23.08
2022-09-14T08:43:33.933Z,23.04
2022-09-14T08:45:36.973Z,23.00
2022-09-14T08:47:41.907Z,22.97
2022-09-14T08:49:48.487Z,22.99
2022-09-14T08:51:51.971Z,23.03
2022-09-14T08:53:57.589Z,23.08
2022-09-14T08:56:02.361Z,23.08
2022-09-14T08:58:09.341Z,23.08
2022-09-14T09:00:15.445Z,23.08
2022-09-14T09:02:35.330Z,23.09
2022-09-14T09:04:43.316Z,23.09
2022-09-14T09:06:53.597Z,23.09
2022-09-14T09:09:05.043Z,23.12
2022-09-14T09:11:11.934Z,23.20
2022-09-14T09:13:18.871Z,23.31
2022-09-14T09:15:23.812Z,23.52
2022-09-14T09:17:31.214Z,23.79
2022-09-14T09:19:36.136Z,24.14
2022-09-14T09:21:42.337Z,24.41
2022-09-14T09:23:45.824Z,24.55
2022-09-14T09:25:57.680Z,24.51
2022-09-14T09:28:03.811Z,24.46
2022-09-14T09:30:08.303Z,24.50
2022-09-14T09:32:14.960Z,24.63
2022-09-14T09:34:38.283Z,24.89
2022-09-14T09:36:50.666Z,25.14
2022-09-14T09:38:53.611Z,25.33
2022-09-14T09:41:00.697Z,25.44
2022-09-14T09:43:09.057Z,25.46
2022-09-14T09:45:12.017Z,25.58
2022-09-14T09:47:15.256Z,25.55
2022-09-14T09:49:21.903Z,25.49
2022-09-14T09:51:30.487Z,25.50
2022-09-14T09:53:35.560Z,25.64
2022-09-14T09:55:40.379Z,25.79
2022-09-14T09:57:44.888Z,25.83
2022-09-14T09:59:48.858Z,25.91
2022-09-14T10:01:54.155Z,25.98
2022-09-14T10:04:07.228Z,26.01
2022-09-14T10:06:12.532Z,26.02
2022-09-14T10:08:16.660Z,25.86
2022-09-14T10:10:22.022Z,25.70
2022-09-14T10:12:25.690Z,25.66
2022-09-14T10:14:32.430Z,25.72
2022-09-14T10:16:38.826Z,25.78
2022-09-14T10:18:48.977Z,25.81
2022-09-14T10:21:09.854Z,25.82
2022-09-14T10:23:26.381Z,25.84
2022-09-14T10:25:29.352Z,25.82
2022-09-14T10:27:39.625Z,25.80
2022-09-14T10:29:44.093Z,25.77
2022-09-14T10:31:47.857Z,25.75
2022-09-14T10:33:53.517Z,25.73
2022-09-14T10:36:02.132Z,25.70
2022-09-14T10:38:16.483Z,25.63
2022-09-14T10:40:23.042Z,25.61
2022-09-14T10:42:32.801Z,25.60
2022-09-14T10:44:47.057Z,25.62
2022-09-14T10:47:04.684Z,25.64
2022-09-14T10:49:18.751Z,25.59
2022-09-14T10:51:31.964Z,25.62
2022-09-14T10:53:45.214Z,25.63
2022-09-14T10:55:54.322Z,25.59
2022-09-14T10:58:03.050Z,25.59
2022-09-14T11:00:12.800Z,25.59
2022-09-14T11:02:41.488Z,25.56
2022-09-14T11:04:54.859Z,25.60
2022-09-14T11:07:03.992Z,25.66
2022-09-14T11:09:17.393Z,25.70
2022-09-14T11:11:30.553Z,25.71
2022-09-14T11:13:44.042Z,25.72
2022-09-14T11:15:58.007Z,25.77
2022-09-14T11:18:09.541Z,25.88
2022-09-14T11:20:22.391Z,25.95
2022-09-14T11:22:33.847Z,26.05
2022-09-14T11:24:41.058Z,26.03
2022-09-14T11:26:47.270Z,26.07
2022-09-14T11:28:53.710Z,26.12
2022-09-14T11:31:04.173Z,26.16
2022-09-14T11:33:14.535Z,26.23
2022-09-14T11:35:20.434Z,26.37
2022-09-14T11:37:28.369Z,26.41
2022-09-14T11:39:34.036Z,26.41
2022-09-14T11:41:40.799Z,26.43
2022-09-14T11:43:47.087Z,26.41
2022-09-14T11:45:53.105Z,26.46
2022-09-14T11:48:12.475Z,26.41
2022-09-14T11:50:30.085Z,26.50
2022-09-14T11:52:34.811Z,26.64
2022-09-14T11:54:46.122Z,26.80
2022-09-14T11:56:51.251Z,26.96
2022-09-14T11:58:55.925Z,27.04
2022-09-14T12:01:11.330Z,26.99
2022-09-14T12:03:18.745Z,26.88
2022-09-14T12:05:36.291Z,26.86
2022-09-14T12:08:04.745Z,26.80
2022-09-14T12:10:19.333Z,26.88
2022-09-14T12:12:46.493Z,26.98
2022-09-14T12:14:50.332Z,27.05
2022-09-14T12:17:38.364Z,27.14
2022-09-14T12:19:42.004Z,27.18
2022-09-14T12:21:45.547Z,27.21
2022-09-14T12:23:52.253Z,27.18
2022-09-14T12:26:02.223Z,27.10
2022-09-14T12:28:27.222Z,27.01
2022-09-14T12:31:08.454Z,26.91
2022-09-14T12:33:42.766Z,26.91
2022-09-14T12:35:47.848Z,26.88
2022-09-14T12:37:50.910Z,26.90
2022-09-14T12:40:37.215Z,26.95
2022-09-14T12:42:40.295Z,26.95
2022-09-14T12:44:44.127Z,26.97
2022-09-14T12:46:48.612Z,26.98
2022-09-14T12:48:58.893Z,26.95
2022-09-14T12:51:02.571Z,26.87
2022-09-14T12:53:30.407Z,26.79
2022-09-14T12:55:48.650Z,26.71
2022-09-14T12:57:56.232Z,26.65
2022-09-14T13:00:07.146Z,26.56
2022-09-14T13:02:32.833Z,26.50
2022-09-14T13:04:38.251Z,26.43
2022-09-14T13:06:44.122Z,26.27
2022-09-14T13:08:49.079Z,26.09
2022-09-14T13:10:52.740Z,25.98
2022-09-14T13:12:56.803Z,25.99
2022-09-14T13:15:02.086Z,25.98
2022-09-14T13:17:06.303Z,25.97
2022-09-14T13:19:24.466Z,25.81
2022-09-14T13:21:27.593Z,25.57
2022-09-14T13:23:33.931Z,25.33
2022-09-14T13:25:38.579Z,24.84
2022-09-14T13:27:50.856Z,24.46
2022-09-14T13:30:03.227Z,24.30
2022-09-14T13:32:07.262Z,24.32
2022-09-14T13:34:18.723Z,24.31
2022-09-14T13:36:25.314Z,24.20
2022-09-14T13:38:31.330Z,24.07
2022-09-14T13:40:34.888Z,24.03
2022-09-14T13:42:38.006Z,23.91
2022-09-14T13:44:45.263Z,23.85
2022-09-14T13:46:48.340Z,23.84
2022-09-14T13:48:52.171Z,23.84
2022-09-14T13:50:55.394Z,23.82
2022-09-14T13:53:03.115Z,23.77
2022-09-14T13:55:21.738Z,23.73
2022-09-14T13:57:25.960Z,23.68
2022-09-14T13:59:28.913Z,23.62
2022-09-14T14:01:39.913Z,23.58
2022-09-14T14:03:48.835Z,23.49
2022-09-14T14:05:52.155Z,23.45
2022-09-14T14:07:56.555Z,23.40
2022-09-14T14:10:01.976Z,23.36
2022-09-14T14:12:05.100Z,23.35
2022-09-14T14:14:13.502Z,23.34
2022-09-14T14:16:19.672Z,23.34
2022-09-14T14:18:40.305Z,23.32
2022-09-14T14:20:43.799Z,23.32
2022-09-14T14:22:56.167Z,23.26
2022-09-14T14:25:16.558Z,23.28
2022-09-14T14:27:28.268Z,23.27
2022-09-14T14:29:31.439Z,23.27
2022-09-14T14:31:34.468Z,23.28
2022-09-14T14:33:45.571Z,23.29
2022-09-14T14:35:51.760Z,23.29
2022-09-14T14:37:55.603Z,23.30
2022-09-14T14:39:58.729Z,23.33
2022-09-14T14:42:03.636Z,23.33
2022-09-14T14:44:08.208Z,23.31
2022-09-14T14:46:11.342Z,23.28
2022-09-14T14:48:14.444Z,23.24
2022-09-14T14:50:18.834Z,23.22
2022-09-14T14:52:21.865Z,23.24
2022-09-14T14:54:24.943Z,23.24
2022-09-14T14:56:28.210Z,23.26
2022-09-14T14:58:36.347Z,23.30
2022-09-14T15:00:39.635Z,23.30
2022-09-14T15:02:42.822Z,23.28
2022-09-14T15:04:45.876Z,23.24
2022-09-14T15:06:49.097Z,23.10
2022-09-14T15:08:54.036Z,23.02
2022-09-14T15:10:57.443Z,22.93
2022-09-14T15:13:00.635Z,22.89
2022-09-14T15:15:05.789Z,22.83
2022-09-14T15:17:08.735Z,22.71
2022-09-14T15:19:11.905Z,22.69
2022-09-14T15:21:15.084Z,22.66
2022-09-14T15:23:18.108Z,22.60
2022-09-14T15:25:22.337Z,22.59
2022-09-14T15:27:25.968Z,22.57
2022-09-14T15:29:29.217Z,22.53
2022-09-14T15:31:33.957Z,22.57
2022-09-14T15:33:37.026Z,22.64
2022-09-14T15:35:40.376Z,22.73
2022-09-14T15:37:43.489Z,22.77
2022-09-14T15:39:50.061Z,22.82
2022-09-14T15:41:53.499Z,22.83
2022-09-14T15:43:56.483Z,22.86
2022-09-14T15:46:05.692Z,22.89
2022-09-14T15:48:13.313Z,22.92
2022-09-14T15:50:16.639Z,22.94
2022-09-14T15:52:19.848Z,22.97
2022-09-14T15:54:24.423Z,23.00
2022-09-14T15:56:27.767Z,23.07
2022-09-14T15:58:31.361Z,23.13
2022-09-14T16:00:34.552Z,23.13
2022-09-14T16:02:37.688Z,23.12
2022-09-14T16:04:42.151Z,23.12
2022-09-14T16:06:46.132Z,23.11
2022-09-14T16:08:49.104Z,23.07
2022-09-14T16:10:58.355Z,23.08
2022-09-14T16:13:01.378Z,23.08
2022-09-14T16:15:04.599Z,23.07
2022-09-14T16:17:08.523Z,23.01
2022-09-14T16:19:13.787Z,22.92
2022-09-14T16:21:21.279Z,22.86
2022-09-14T16:23:24.252Z,22.83
2022-09-14T16:25:27.288Z,22.79
2022-09-14T16:27:30.955Z,22.77
2022-09-14T16:29:34.008Z,22.69
2022-09-14T16:31:38.490Z,22.68
2022-09-14T16:33:43.282Z,22.67
2022-09-14T16:35:46.266Z,22.63
2022-09-14T16:37:50.646Z,22.52
2022-09-14T16:39:53.987Z,22.47
2022-09-14T16:41:57.389Z,22.44
2022-09-14T16:44:05.038Z,22.36
2022-09-14T16:46:09.683Z,22.33
2022-09-14T16:48:12.948Z,22.32
2022-09-14T16:50:16.041Z,22.27
2022-09-14T16:52:19.157Z,22.23
2022-09-14T16:54:25.444Z,22.23
2022-09-14T16:56:30.913Z,22.18
2022-09-14T16:58:34.725Z,22.19
2022-09-14T17:00:41.201Z,22.19
2022-09-14T17:02:46.728Z,22.18
2022-09-14T17:04:49.831Z,22.19
2022-09-14T17:06:55.108Z,22.20
2022-09-14T17:09:00.494Z,22.19
2022-09-14T17:11:06.088Z,22.17
2022-09-14T17:13:09.108Z,22.16
2022-09-14T17:15:12.374Z,22.15
2022-09-14T17:17:15.879Z,22.16
2022-09-14T17:19:19.104Z,22.14
2022-09-14T17:21:24.665Z,22.13
2022-09-14T17:23:28.051Z,22.10
2022-09-14T17:25:31.141Z,22.06
2022-09-14T17:27:35.572Z,22.01
2022-09-14T17:29:40.727Z,21.99
2022-09-14T17:31:44.939Z,21.94
2022-09-14T17:33:48.298Z,21.92
2022-09-14T17:35:52.668Z,21.91
2022-09-14T17:37:56.093Z,21.91
2022-09-14T17:39:59.141Z,21.89
2022-09-14T17:42:02.202Z,21.88
2022-09-14T17:44:07.750Z,21.87
2022-09-14T17:46:13.369Z,21.85
2022-09-14T17:48:16.564Z,21.82
2022-09-14T17:50:21.034Z,21.78
2022-09-14T17:52:23.984Z,21.75
2022-09-14T17:54:27.432Z,21.71
2022-09-14T17:56:31.266Z,21.68
2022-09-14T17:58:34.363Z,21.64
2022-09-14T18:00:38.746Z,21.61
2022-09-14T18:02:42.049Z,21.60
2022-09-14T18:04:48.621Z,21.59
2022-09-14T18:06:51.835Z,21.58
2022-09-14T18:08:55.748Z,21.57
2022-09-14T18:11:05.162Z,21.55
2022-09-14T18:13:08.272Z,21.53
2022-09-14T18:15:15.047Z,21.49
2022-09-14T18:17:19.993Z,21.42
2022-09-14T18:19:23.236Z,21.38
2022-09-14T18:21:26.363Z,21.34
2022-09-14T18:23:29.655Z,21.29
2022-09-14T18:25:33.583Z,21.27
2022-09-14T18:27:36.671Z,21.25
2022-09-14T18:29:40.069Z,21.20
2022-09-14T18:31:43.328Z,21.11
2022-09-14T18:33:52.487Z,21.02
2022-09-14T18:35:55.806Z,20.99
2022-09-14T18:37:58.885Z,20.97
2022-09-14T18:40:02.293Z,20.97
2022-09-14T18:42:05.801Z,20.99
2022-09-14T18:44:08.845Z,20.99
2022-09-14T18:46:12.166Z,20.94
2022-09-14T18:48:15.400Z,20.96
2022-09-14T18:50:20.482Z,20.95
2022-09-14T18:52:23.569Z,20.96
2022-09-14T18:54:27.694Z,20.98
2022-09-14T18:56:33.126Z,20.95
2022-09-14T18:58:37.809Z,20.93
2022-09-14T19:00:45.872Z,20.91
2022-09-14T19:02:52.705Z,20.91
2022-09-14T19:04:56.470Z,20.89
2022-09-14T19:07:01.156Z,20.88
2022-09-14T19:09:04.404Z,20.89
2022-09-14T19:11:08.288Z,20.89
2022-09-14T19:13:11.585Z,20.91
2022-09-14T19:15:14.960Z,20.90
2022-09-14T19:17:18.010Z,20.91
2022-09-14T19:19:21.262Z,20.93
2022-09-14T19:21:26.153Z,20.94
2022-09-14T19:23:30.960Z,20.95
2022-09-14T19:25:37.756Z,20.95
2022-09-14T19:27:40.899Z,20.93
2022-09-14T19:29:44.005Z,20.93
2022-09-14T19:31:50.968Z,20.92
2022-09-14T19:33:55.088Z,20.90
2022-09-14T19:36:03.436Z,20.92
2022-09-14T19:38:06.500Z,20.92
2022-09-14T19:40:11.632Z,20.90
2022-09-14T19:42:14.815Z,20.89
2022-09-14T19:44:18.408Z,20.89
2022-09-14T19:46:23.285Z,20.87
2022-09-14T19:48:26.499Z,20.83
2022-09-14T19:50:29.747Z,20.81
2022-09-14T19:52:32.822Z,20.79
2022-09-14T19:54:36.036Z,20.74
2022-09-14T19:56:40.441Z,20.71
2022-09-14T19:58:46.841Z,20.67
2022-09-14T20:00:53.988Z,20.62
2022-09-14T20:02:57.057Z,20.59
2022-09-14T20:05:00.213Z,20.50
2022-09-14T20:07:03.379Z,20.48
2022-09-14T20:09:08.250Z,20.45
2022-09-14T20:11:17.654Z,20.41
2022-09-14T20:13:24.312Z,20.37
2022-09-14T20:15:29.748Z,20.33
2022-09-14T20:17:32.819Z,20.29
2022-09-14T20:19:36.460Z,20.27
2022-09-14T20:21:41.281Z,20.23
2022-09-14T20:24:04.488Z,20.19
2022-09-14T20:26:09.938Z,20.16
2022-09-14T20:28:13.005Z,20.15
2022-09-14T20:30:17.637Z,20.15
2022-09-14T20:32:20.678Z,20.15
2022-09-14T20:34:23.937Z,20.14
2022-09-14T20:36:28.566Z,20.11
2022-09-14T20:38:31.631Z,20.09
2022-09-14T20:40:34.780Z,20.08
2022-09-14T20:42:37.873Z,20.05
2022-09-14T20:44:40.945Z,20.05
2022-09-14T20:46:47.006Z,20.05
2022-09-14T20:48:50.893Z,20.08
2022-09-14T20:50:54.139Z,20.08
2022-09-14T20:52:57.303Z,20.07
2022-09-14T20:55:00.458Z,20.07
2022-09-14T20:57:04.598Z,20.08
2022-09-14T20:59:09.590Z,20.10
2022-09-14T21:01:14.072Z,20.10
2022-09-14T21:03:18.541Z,20.07
2022-09-14T21:05:21.582Z,20.10
2022-09-14T21:07:25.661Z,20.11
2022-09-14T21:09:29.175Z,20.07
2022-09-14T21:11:32.525Z,20.01
2022-09-14T21:13:36.149Z,20.02
2022-09-14T21:15:39.309Z,20.03
2022-09-14T21:17:42.508Z,20.01
2022-09-14T21:19:46.980Z,20.02
2022-09-14T21:21:50.693Z,20.00
2022-09-14T21:23:55.773Z,19.98
2022-09-14T21:25:58.768Z,19.95
2022-09-14T21:28:02.004Z,19.94
2022-09-14T21:30:05.896Z,19.92
2022-09-14T21:32:09.292Z,19.93
2022-09-14T21:34:13.319Z,19.93
2022-09-14T21:36:19.294Z,19.95
2022-09-14T21:38:22.315Z,19.89
2022-09-14T21:40:25.448Z,19.80
2022-09-14T21:42:30.229Z,19.75
2022-09-14T21:44:34.998Z,19.75
2022-09-14T21:46:38.501Z,19.77
2022-09-14T21:48:41.735Z,19.75
2022-09-14T21:50:47.363Z,19.74
2022-09-14T21:52:51.939Z,19.73
2022-09-14T21:54:54.949Z,19.74
2022-09-14T21:56:57.943Z,19.69
2022-09-14T21:59:02.764Z,19.66
2022-09-14T22:01:06.169Z,19.64
2022-09-14T22:03:09.305Z,19.65
2022-09-14T22:05:12.691Z,19.65
2022-09-14T22:07:15.765Z,19.65
2022-09-14T22:09:28.256Z,19.62
2022-09-14T22:11:32.659Z,19.58
2022-09-14T22:13:35.775Z,19.57
2022-09-14T22:15:38.824Z,19.57
2022-09-14T22:17:42.065Z,19.57
2022-09-14T22:19:45.134Z,19.56
2022-09-14T22:21:48.954Z,19.55
2022-09-14T22:23:53.121Z,19.55
2022-09-14T22:25:58.249Z,19.55
2022-09-14T22:28:01.324Z,19.51
2022-09-14T22:30:04.597Z,19.50
2022-09-14T22:32:12.072Z,19.46
2022-09-14T22:34:15.307Z,19.46
2022-09-14T22:36:18.448Z,19.46
2022-09-14T22:38:22.223Z,19.46
2022-09-14T22:40:25.284Z,19.47
2022-09-14T22:42:31.437Z,19.46
2022-09-14T22:44:34.421Z,19.46
2022-09-14T22:46:37.452Z,19.47
2022-09-14T22:48:40.557Z,19.47
2022-09-14T22:50:43.818Z,19.47
2022-09-14T22:52:46.812Z,19.47
2022-09-14T22:54:49.808Z,19.50
2022-09-14T22:56:52.824Z,19.48
2022-09-14T22:58:57.482Z,19.48
2022-09-14T23:01:06.379Z,19.50
2022-09-14T23:03:10.239Z,19.51
2022-09-14T23:05:13.252Z,19.50
2022-09-14T23:07:16.239Z,19.49
2022-09-14T23:09:22.354Z,19.49
2022-09-14T23:11:25.870Z,19.47
2022-09-14T23:13:28.797Z,19.46
2022-09-14T23:15:33.190Z,19.46
2022-09-14T23:17:36.186Z,19.48
2022-09-14T23:19:39.373Z,19.48
2022-09-14T23:21:42.418Z,19.50
2022-09-14T23:23:45.538Z,19.46
2022-09-14T23:25:48.973Z,19.46
2022-09-14T23:27:52.032Z,19.46
2022-09-14T23:29:54.982Z,19.48
2022-09-14T23:31:59.344Z,19.48
2022-09-14T23:34:04.061Z,19.44
2022-09-14T23:36:07.413Z,19.44
2022-09-14T23:38:10.434Z,19.44
2022-09-14T23:40:13.965Z,19.48
2022-09-14T23:42:16.993Z,19.50
2022-09-14T23:44:20.069Z,19.46
2022-09-14T23:46:23.436Z,19.47
2022-09-14T23:48:28.164Z,19.49
2022-09-14T23:50:31.629Z,19.51
2022-09-14T23:52:34.724Z,19.53
2022-09-14T23:54:37.650Z,19.56
2022-09-14T23:56:41.041Z,19.57
2022-09-14T23:58:44.428Z,19.59
